Time;durP1;ratioP1;P1;durP2;ratioP2;P2;SDS_P1;SDS_P2;PMS_P1;PMS_P2;Temp;Humidity;BMP_temperature;BMP_pressure;BME280_temperature;BME280_humidity;BME280_pressure;Samples;Min_cycle;Max_cycle;Signal;HPM_P1;HPM_P2
2021/03/25 00:00:29;;;;;;;12.77;5.97;;;;;;;0.62;83.32;97051.13;5044951;28;20103;-58
2021/03/25 00:03:17;;;;;;;8.27;4.30;;;;;;;0.65;82.99;97049.72;5044079;28;20165;-59
2021/03/25 00:06:01;;;;;;;13.63;5.68;;;;;;;-0.38;82.69;96889.97;5043761;28;20114;-59
2021/03/25 00:08:45;;;;;;;6.90;4.15;;;;;;;0.34;80.82;96992.38;5045073;28;20051;-58
2021/03/25 00:11:29;;;;;;;7.10;2.92;;;;;;;0.13;81.78;96955.78;5045030;28;20044;-59
2021/03/25 00:14:13;;;;;;;5.40;3.10;;;;;;;0.84;81.54;97043.00;5045482;28;20474;-59
2021/03/25 00:16:57;;;;;;;4.55;3.22;;;;;;;0.85;80.66;97039.16;5043337;28;20106;-59
2021/03/25 00:19:41;;;;;;;6.07;3.17;;;;;;;0.96;80.03;97051.44;5045151;28;20044;-60
2021/03/25 00:22:25;;;;;;;18.00;8.27;;;;;;;0.31;81.92;96960.31;5044382;28;20052;-59
2021/03/25 00:25:15;;;;;;;13.48;7.38;;;;;;;0.94;81.00;97048.22;5049574;28;20058;-58
2021/03/25 00:27:59;;;;;;;22.13;9.10;;;;;;;0.85;83.03;97055.53;5065185;28;20032;-59
2021/03/25 00:30:44;;;;;;;16.50;7.05;;;;;;;0.76;82.57;97062.81;5064349;28;20046;-60
2021/03/25 00:33:28;;;;;;;18.00;8.38;;;;;;;0.28;83.05;96990.88;5064828;28;20105;-61
2021/03/25 00:36:13;;;;;;;18.67;7.60;;;;;;;-1.57;82.95;96700.00;5063903;28;20117;-58
2021/03/25 00:38:58;;;;;;;24.40;9.55;;;;;;;0.66;83.28;97049.41;5064149;28;20043;-59
2021/03/25 00:41:42;;;;;;;18.15;8.52;;;;;;;0.63;83.53;97036.41;5064020;28;20128;-57
2021/03/25 00:44:27;;;;;;;16.23;6.93;;;;;;;0.48;82.19;97035.91;5064561;28;20063;-58
2021/03/25 00:47:11;;;;;;;21.20;7.10;;;;;;;0.05;81.30;96972.84;5064089;28;20475;-56
2021/03/25 00:49:55;;;;;;;14.20;5.95;;;;;;;0.42;82.04;97045.31;5077387;28;20051;-56
2021/03/25 00:52:38;;;;;;;14.32;6.00;;;;;;;0.37;82.38;97039.97;5062778;28;20031;-58
2021/03/25 00:55:23;;;;;;;10.77;4.55;;;;;;;-0.16;80.42;96974.41;5063654;28;20060;-56
2021/03/25 00:58:08;;;;;;;14.55;5.20;;;;;;;-2.07;81.37;96630.38;5062965;28;20075;-57
2021/03/25 01:00:53;;;;;;;14.40;6.05;;;;;;;0.19;82.92;96981.00;5063453;28;20043;-58
2021/03/25 01:03:37;;;;;;;32.25;8.73;;;;;;;0.61;80.83;97038.63;5064245;28;20034;-57
2021/03/25 01:06:21;;;;;;;10.43;4.13;;;;;;;0.67;80.10;97053.75;5062652;28;20488;-57
2021/03/25 01:09:21;;;;;;;6.25;2.90;;;;;;;0.47;81.32;97023.41;5064123;28;20230;-58
2021/03/25 01:12:06;;;;;;;5.43;2.65;;;;;;;-2.16;82.08;96610.50;5062805;28;20048;-58
2021/03/25 01:14:50;;;;;;;7.55;2.80;;;;;;;-0.19;84.28;96980.47;5063844;28;20442;-58
2021/03/25 01:17:38;;;;;;;5.63;2.75;;;;;;;0.25;84.31;97024.19;5062663;28;20129;-58
2021/03/25 01:20:26;;;;;;;5.65;2.33;;;;;;;0.46;84.19;97057.25;5076405;28;20066;-58
2021/03/25 01:23:11;;;;;;;4.80;2.78;;;;;;;0.51;84.12;97059.81;5064018;28;20534;-57
2021/03/25 01:25:55;;;;;;;7.80;3.00;;;;;;;0.50;84.34;97056.31;5052467;28;20048;-58
2021/03/25 01:28:39;;;;;;;6.95;2.90;;;;;;;0.53;85.26;97050.25;5044100;28;20059;-58
2021/03/25 01:31:24;;;;;;;19.85;5.88;;;;;;;0.17;85.46;96989.50;5042909;28;20099;-58
2021/03/25 01:34:11;;;;;;;44.63;10.15;;;;;;;0.61;84.41;97044.09;5042984;28;20412;-58
2021/03/25 01:36:55;;;;;;;12.30;5.30;;;;;;;0.24;84.27;97005.41;5043219;28;20506;-59
2021/03/25 01:39:39;;;;;;;9.32;4.60;;;;;;;-0.96;83.48;96801.97;5042415;28;20130;-60
2021/03/25 01:42:28;;;;;;;18.35;9.43;;;;;;;0.48;84.27;97039.47;5043337;28;20039;-57
2021/03/25 01:45:28;;;;;;;21.27;9.15;;;;;;;0.58;84.25;97049.31;5042165;28;20064;-58
2021/03/25 01:48:13;;;;;;;9.73;4.15;;;;;;;0.70;83.32;97052.31;5043205;28;20486;-58
2021/03/25 01:51:04;;;;;;;10.32;4.65;;;;;;;0.61;83.27;97060.44;5041598;28;20039;-58
2021/03/25 01:54:08;;;;;;;6.95;4.20;;;;;;;0.58;82.33;97055.59;5042363;28;20044;-58
2021/03/25 01:57:23;;;;;;;8.73;4.07;;;;;;;0.26;83.95;97057.66;5043074;28;20036;-58
2021/03/25 02:00:29;;;;;;;10.60;5.43;;;;;;;-0.22;84.88;97035.47;5042895;28;20563;-60
2021/03/25 02:03:25;;;;;;;40.00;14.70;;;;;;;0.30;85.22;97056.72;5042498;28;20085;-58
2021/03/25 02:06:26;;;;;;;23.00;9.55;;;;;;;-0.18;85.57;96995.66;5043251;28;20095;-57
2021/03/25 02:09:13;;;;;;;13.93;7.32;;;;;;;0.32;84.57;97068.13;5043806;28;20654;-58
2021/03/25 02:12:18;;;;;;;8.90;4.18;;;;;;;0.43;82.36;97047.75;5043035;28;20082;-57
2021/03/25 02:15:05;;;;;;;13.88;7.22;;;;;;;0.17;83.53;97092.97;5043236;28;20126;-57
2021/03/25 02:18:12;;;;;;;12.63;5.63;;;;;;;-0.47;88.23;97049.56;5042587;28;20040;-57
2021/03/25 02:21:15;;;;;;;11.52;5.75;;;;;;;-0.06;88.29;97061.28;5041733;28;20128;-59
2021/03/25 02:24:14;;;;;;;12.93;6.28;;;;;;;-0.01;86.45;97058.47;5045140;28;20048;-58
2021/03/25 02:27:20;;;;;;;10.32;4.78;;;;;;;-0.40;89.46;97066.31;5066390;28;20417;-57
2021/03/25 02:30:35;;;;;;;17.73;5.57;;;;;;;-0.11;87.51;97058.66;5066919;28;20105;-56
2021/03/25 02:33:21;;;;;;;16.20;5.35;;;;;;;-0.09;86.73;97051.81;5067156;28;20111;-58
2021/03/25 02:36:10;;;;;;;20.17;7.32;;;;;;;0.09;85.56;97050.09;5066812;28;20043;-56
2021/03/25 02:38:59;;;;;;;26.73;9.88;;;;;;;0.17;84.59;97054.03;5065783;28;20093;-56
2021/03/25 02:41:49;;;;;;;23.58;10.57;;;;;;;0.00;84.80;97017.34;5065267;28;20603;-59
2021/03/25 02:44:40;;;;;;;22.75;10.45;;;;;;;0.16;84.15;97025.97;5065633;28;20047;-58
2021/03/25 02:47:25;;;;;;;26.52;10.85;;;;;;;0.25;84.97;97043.25;5066202;28;20576;-58
2021/03/25 02:50:21;;;;;;;19.58;9.48;;;;;;;0.36;84.54;97041.09;5066033;28;20439;-58
2021/03/25 02:53:18;;;;;;;18.88;9.65;;;;;;;0.43;83.21;97063.31;5066552;28;20090;-58
2021/03/25 02:56:11;;;;;;;12.40;6.20;;;;;;;-0.31;83.06;96945.59;5066320;28;20243;-57
2021/03/25 02:59:07;;;;;;;12.82;6.13;;;;;;;0.14;83.00;97006.44;5065212;28;20097;-58
2021/03/25 03:01:57;;;;;;;11.50;5.18;;;;;;;0.54;82.96;97054.56;5065983;28;20514;-58
2021/03/25 03:04:45;;;;;;;11.52;5.82;;;;;;;0.53;81.12;97061.16;5066257;28;20118;-58
2021/03/25 03:07:39;;;;;;;10.45;4.65;;;;;;;0.34;78.27;97038.69;5064333;28;20542;-59
2021/03/25 03:10:29;;;;;;;;;;;;;;;0.62;79.29;97055.78;5065032;28;20115;-58
2021/03/25 03:13:16;;;;;;;17.58;6.30;;;;;;;0.48;83.28;97077.59;5066381;28;19970;-58
2021/03/25 03:16:12;;;;;;;42.38;15.40;;;;;;;0.47;84.03;97081.44;5065489;28;20055;-59
2021/03/25 03:19:11;;;;;;;33.22;11.07;;;;;;;0.41;85.46;97076.41;5066215;28;20087;-58
2021/03/25 03:22:14;;;;;;;37.90;12.35;;;;;;;0.54;84.03;97065.47;5066010;28;20085;-58
2021/03/25 03:24:58;;;;;;;39.15;12.32;;;;;;;0.48;84.31;97055.81;5063852;28;20091;-58
2021/03/25 03:27:53;;;;;;;41.78;14.55;;;;;;;0.34;84.82;97062.38;5045055;28;20082;-58
2021/03/25 03:30:44;;;;;;;46.47;16.30;;;;;;;0.63;83.68;97092.81;5044073;28;20451;-60
2021/03/25 03:33:40;;;;;;;42.40;15.38;;;;;;;0.51;83.95;97087.88;5046215;28;20048;-58
2021/03/25 03:36:25;;;;;;;62.00;21.25;;;;;;;0.57;85.09;97075.75;5043891;28;20470;-58
2021/03/25 03:39:15;;;;;;;55.35;24.10;;;;;;;0.68;84.24;97077.16;5045910;28;20075;-58
2021/03/25 03:42:07;;;;;;;58.78;24.67;;;;;;;-0.09;84.44;96953.00;5046142;28;20039;-58
2021/03/25 03:44:55;;;;;;;47.13;18.52;;;;;;;0.88;81.98;97087.63;5045737;28;20196;-58
2021/03/25 03:47:42;;;;;;;43.45;17.80;;;;;;;0.28;81.03;97018.13;5045520;28;20435;-58
2021/03/25 03:50:35;;;;;;;41.85;18.52;;;;;;;0.74;82.47;97045.97;5044846;28;20523;-59
2021/03/25 03:53:22;;;;;;;43.55;17.92;;;;;;;1.04;83.04;97094.31;5045252;28;20448;-60
2021/03/25 03:56:26;;;;;;;33.20;15.88;;;;;;;0.74;80.98;97032.34;5044790;28;20119;-58
2021/03/25 03:59:35;;;;;;;31.98;15.75;;;;;;;1.09;80.52;97088.75;5045821;28;20760;-58
2021/03/25 04:02:25;;;;;;;41.92;18.60;;;;;;;1.06;80.79;97094.03;5045137;28;20121;-59
2021/03/25 04:05:14;;;;;;;37.38;17.52;;;;;;;1.06;79.50;97105.72;5044674;28;20157;-58
2021/03/25 04:08:23;;;;;;;121.35;42.22;;;;;;;1.04;79.21;97102.50;5045111;28;20112;-59
2021/03/25 04:11:30;;;;;;;61.22;26.38;;;;;;;0.83;80.70;97090.47;5043124;28;20601;-58
2021/03/25 04:14:21;;;;;;;65.35;29.65;;;;;;;-0.24;80.67;96885.31;5045292;28;20044;-57
2021/03/25 04:17:08;;;;;;;54.97;23.17;;;;;;;-1.83;81.37;96658.13;5044881;28;20569;-58
2021/03/25 04:19:56;;;;;;;81.28;30.95;;;;;;;0.63;82.68;97093.66;5044822;28;20517;-57
2021/03/25 04:22:52;;;;;;;44.35;18.85;;;;;;;0.84;81.89;97099.44;5045182;28;20102;-58
2021/03/25 04:25:42;;;;;;;23.73;13.18;;;;;;;0.84;80.76;97102.97;5050419;28;20522;-57
2021/03/25 04:28:35;;;;;;;22.13;11.88;;;;;;;0.93;80.25;97103.84;5064897;28;20399;-57
2021/03/25 04:31:19;;;;;;;21.88;11.52;;;;;;;0.91;80.98;97111.53;5064017;28;20420;-57
2021/03/25 04:34:04;;;;;;;46.38;22.65;;;;;;;0.94;80.26;97097.28;5064656;28;20050;-58
2021/03/25 04:36:49;;;;;;;39.53;20.27;;;;;;;0.59;80.24;97057.19;5064428;28;20117;-58
2021/03/25 04:39:37;;;;;;;29.98;16.48;;;;;;;1.00;81.33;97120.59;5065191;28;20073;-58
2021/03/25 04:42:21;;;;;;;34.05;16.00;;;;;;;0.62;81.61;97059.31;5064187;28;20113;-58
2021/03/25 04:45:11;;;;;;;35.88;16.00;;;;;;;1.21;81.05;97124.47;5059061;28;20110;-58
2021/03/25 04:48:03;;;;;;;48.13;20.42;;;;;;;0.28;82.14;96999.06;5063947;28;20060;-57
2021/03/25 04:51:07;;;;;;;43.75;21.27;;;;;;;1.19;82.89;97129.44;5063850;28;20525;-58
2021/03/25 04:54:07;;;;;;;41.17;19.67;;;;;;;1.33;81.44;97132.91;5060386;28;20063;-60
2021/03/25 04:56:54;;;;;;;39.58;18.00;;;;;;;0.52;80.59;97035.00;5064140;28;20039;-60
2021/03/25 04:59:38;;;;;;;44.75;19.27;;;;;;;1.64;80.34;97133.00;5064235;28;20047;-58
2021/03/25 05:02:24;;;;;;;29.30;15.35;;;;;;;1.71;79.48;97138.81;5063918;28;20601;-58
2021/03/25 05:05:15;;;;;;;27.30;13.48;;;;;;;1.58;79.01;97119.78;5062467;28;20059;-58
2021/03/25 05:08:07;;;;;;;92.78;38.40;;;;;;;1.84;78.77;97153.50;5063989;28;20043;-59
2021/03/25 05:11:12;;;;;;;60.03;24.35;;;;;;;1.84;79.06;97126.19;5062972;28;20561;-60
2021/03/25 05:13:59;;;;;;;38.08;18.52;;;;;;;1.84;79.58;97148.03;5062642;28;20059;-60
2021/03/25 05:16:51;;;;;;;26.25;14.35;;;;;;;1.28;79.50;97086.66;5062175;28;20039;-59
2021/03/25 05:20:02;;;;;;;29.63;15.95;;;;;;;1.17;82.01;97074.38;5063824;28;20046;-60
2021/03/25 05:23:07;;;;;;;48.30;24.17;;;;;;;1.66;83.58;97168.16;5064158;28;20055;-60
2021/03/25 05:25:59;;;;;;;26.05;12.95;;;;;;;1.59;84.63;97168.59;5067660;28;20118;-59
2021/03/25 05:28:50;;;;;;;33.05;18.38;;;;;;;1.40;84.65;97127.84;5043741;28;20094;-59
2021/03/25 05:31:36;;;;;;;50.65;25.30;;;;;;;1.67;85.75;97180.69;5042911;28;20032;-59
2021/03/25 05:34:23;;;;;;;26.27;13.15;;;;;;;-0.79;84.35;96775.78;5044482;28;20320;-59
2021/03/25 05:37:08;;;;;;;31.48;16.25;;;;;;;1.71;85.67;97166.09;5042369;28;20091;-59
2021/03/25 05:39:53;;;;;;;46.45;21.40;;;;;;;2.03;83.91;97184.16;5042854;28;20546;-60
2021/03/25 05:42:50;;;;;;;28.30;15.35;;;;;;;2.00;84.27;97184.78;5042753;28;20039;-60
2021/03/25 05:45:49;;;;;;;18.08;9.77;;;;;;;1.97;84.28;97169.00;5042147;28;20052;-60
2021/03/25 05:48:55;;;;;;;24.20;11.77;;;;;;;2.04;82.68;97164.72;5043588;28;20092;-60
2021/03/25 05:52:05;;;;;;;22.38;11.77;;;;;;;1.89;81.84;97173.31;5043227;28;20506;-61
2021/03/25 05:54:59;;;;;;;23.45;12.43;;;;;;;2.10;79.63;97184.53;5042707;28;20063;-61
2021/03/25 05:58:11;;;;;;;27.60;15.60;;;;;;;2.06;81.71;97183.53;5043970;28;20063;-61
2021/03/25 06:01:09;;;;;;;21.08;11.95;;;;;;;2.15;81.42;97200.78;5047015;28;20103;-59
2021/03/25 06:04:16;;;;;;;19.88;10.00;;;;;;;2.12;80.93;97182.28;5050577;28;20063;-62
2021/03/25 06:07:03;;;;;;;26.02;12.82;;;;;;;2.20;79.83;97195.16;5047128;28;20102;-57
2021/03/25 06:10:06;;;;;;;22.55;12.55;;;;;;;2.26;80.21;97199.41;5064640;28;20095;-60
2021/03/25 06:12:50;;;;;;;43.65;20.52;;;;;;;2.42;80.88;97192.44;5063803;28;20118;-62
2021/03/25 06:15:46;;;;;;;25.20;12.27;;;;;;;2.54;79.82;97195.38;5046676;28;20044;-60
2021/03/25 06:19:05;;;;;;;14.40;8.18;;;;;;;2.67;76.02;97194.47;5061587;28;20101;-61
2021/03/25 06:22:17;;;;;;;18.98;8.55;;;;;;;2.46;72.49;97145.00;5058507;28;20114;-61
2021/03/25 06:25:19;;;;;;;19.05;9.32;;;;;;;3.02;71.48;97204.38;5055964;28;20051;-58
2021/03/25 06:28:21;;;;;;;24.33;11.63;;;;;;;3.03;74.65;97208.72;5049402;28;20051;-59
2021/03/25 06:31:12;;;;;;;10.43;5.93;;;;;;;3.00;71.68;97203.91;5059761;28;20063;-61
2021/03/25 06:34:00;;;;;;;64.15;35.70;;;;;;;3.22;72.06;97222.13;5059609;28;20090;-62
2021/03/25 06:36:59;;;;;;;33.35;21.00;;;;;;;2.60;73.90;97095.66;5053412;28;20051;-64
2021/03/25 06:39:52;;;;;;;28.05;15.40;;;;;;;3.55;71.91;97226.88;5054616;28;20052;-62
2021/03/25 06:42:40;;;;;;;30.13;19.75;;;;;;;3.73;77.62;97219.47;5050231;28;20534;-63
2021/03/25 06:45:33;;;;;;;20.33;10.73;;;;;;;3.96;69.40;97221.72;5051931;28;20106;-61
2021/03/25 06:48:24;;;;;;;16.55;9.10;;;;;;;4.11;66.22;97234.91;5060721;28;20888;-62
2021/03/25 06:51:27;;;;;;;16.85;7.65;;;;;;;4.38;64.71;97251.00;5054158;28;20439;-62
2021/03/25 06:54:24;;;;;;;12.48;6.57;;;;;;;4.11;60.34;97202.00;5056882;28;20106;-62
2021/03/25 06:57:16;;;;;;;14.27;7.95;;;;;;;4.80;62.36;97229.25;5051580;28;20438;-60
2021/03/25 07:00:02;;;;;;;10.02;4.90;;;;;;;4.68;56.98;97237.38;5065214;28;20083;-58
2021/03/25 07:02:48;;;;;;;10.07;6.63;;;;;;;3.63;60.16;97130.22;5049298;28;20047;-63
2021/03/25 07:05:34;;;;;;;8.63;4.85;;;;;;;4.45;54.85;97201.97;5045718;28;20097;-62
2021/03/25 07:08:22;;;;;;;9.18;5.45;;;;;;;4.87;56.36;97230.34;5046775;28;20099;-62
2021/03/25 07:11:16;;;;;;;8.35;4.85;;;;;;;4.89;54.96;97232.78;5045071;28;20545;-62
2021/03/25 07:14:08;;;;;;;9.60;6.45;;;;;;;5.30;56.79;97235.66;5045090;28;20036;-62
2021/03/25 07:16:52;;;;;;;8.98;5.68;;;;;;;5.33;55.13;97199.28;5053959;28;20075;-61
2021/03/25 07:19:38;;;;;;;8.77;5.45;;;;;;;5.36;51.76;97187.66;5052982;28;20059;-69
2021/03/25 07:22:26;;;;;;;15.52;8.27;;;;;;;5.54;56.23;97233.06;5054663;28;20097;-62
2021/03/25 07:25:19;;;;;;;5.93;3.63;;;;;;;4.65;51.92;97239.66;5057510;28;20514;-63
2021/03/25 07:28:12;;;;;;;6.68;3.78;;;;;;;3.69;53.47;97112.47;5055965;28;20426;-62
2021/03/25 07:31:01;;;;;;;5.93;3.63;;;;;;;4.71;53.93;97236.72;5073649;28;20192;-63
2021/03/25 07:33:45;;;;;;;8.20;4.32;;;;;;;5.07;52.49;97250.78;5057722;28;20079;-63
2021/03/25 07:36:33;;;;;;;5.97;4.22;;;;;;;5.02;52.62;97240.81;5057892;28;20116;-63
2021/03/25 07:39:47;;;;;;;5.43;3.63;;;;;;;5.06;52.10;97249.19;5058016;28;20115;-62
2021/03/25 07:42:35;;;;;;;7.57;4.67;;;;;;;4.75;53.12;97265.09;5048129;28;20052;-64
2021/03/25 07:45:32;;;;;;;5.38;3.42;;;;;;;4.14;53.23;97267.16;5047688;28;20327;-61
2021/03/25 07:48:23;;;;;;;14.57;7.60;;;;;;;1.69;54.97;96801.75;5052813;28;20067;-61
2021/03/25 07:51:13;;;;;;;5.60;3.00;;;;;;;4.35;52.01;97251.66;5060029;28;20426;-58
2021/03/25 07:54:15;;;;;;;6.18;3.40;;;;;;;4.31;52.72;97258.94;5050568;28;20060;-63
2021/03/25 07:57:02;;;;;;;7.43;5.05;;;;;;;4.82;53.82;97255.22;5056546;28;20074;-62
2021/03/25 07:59:51;;;;;;;5.70;3.10;;;;;;;4.03;50.47;97117.09;5053349;28;20048;-62
2021/03/25 08:02:39;;;;;;;6.88;4.22;;;;;;;5.41;49.95;97261.59;5052061;28;20047;-62
2021/03/25 08:05:28;;;;;;;7.53;4.45;;;;;;;5.77;49.48;97254.41;5047379;28;20126;-61
2021/03/25 08:08:27;;;;;;;6.55;4.07;;;;;;;5.91;48.44;97262.44;5045264;28;20553;-61
2021/03/25 08:11:15;;;;;;;6.25;4.32;;;;;;;6.08;50.06;97226.56;5054234;28;20044;-62
2021/03/25 08:14:14;;;;;;;6.90;4.32;;;;;;;6.72;47.44;97268.97;5060266;28;20048;-63
2021/03/25 08:17:17;;;;;;;14.50;11.00;;;;;;;7.10;46.18;97264.00;5064932;28;20040;-61
2021/03/25 08:20:41;;;;;;;8.40;4.97;;;;;;;6.96;44.92;97258.03;5044522;28;20098;-63
2021/03/25 08:23:53;;;;;;;9.32;6.10;;;;;;;7.35;46.43;97254.59;5053577;28;20052;-58
2021/03/25 08:26:40;;;;;;;5.90;3.97;;;;;;;6.89;44.47;97259.75;5044145;28;20059;-62
2021/03/25 08:29:27;;;;;;;8.55;4.70;;;;;;;6.53;45.46;97260.44;5048059;28;20046;-63
2021/03/25 08:32:12;;;;;;;8.70;5.18;;;;;;;6.91;44.27;97249.97;5047111;28;20059;-62
2021/03/25 08:35:07;;;;;;;12.63;8.73;;;;;;;7.00;46.32;97250.66;5050634;28;20106;-60
2021/03/25 08:37:54;;;;;;;31.35;16.52;;;;;;;7.32;45.72;97244.28;5051854;28;20048;-62
2021/03/25 08:40:50;;;;;;;7.78;4.90;;;;;;;7.41;45.83;97205.59;5063927;28;20043;-62
2021/03/25 08:43:47;;;;;;;14.70;6.80;;;;;;;7.93;45.04;97241.47;5054183;28;20102;-63
2021/03/25 08:46:51;;;;;;;13.40;8.68;;;;;;;7.93;46.20;97246.97;5043985;28;20065;-62
2021/03/25 08:49:41;;;;;;;9.65;6.50;;;;;;;7.19;45.92;97168.28;5045531;28;20064;-61
2021/03/25 08:52:30;;;;;;;11.80;7.30;;;;;;;7.43;44.37;97264.72;5043656;28;20047;-63
2021/03/25 08:55:32;;;;;;;7.05;4.63;;;;;;;7.68;41.52;97241.50;5046888;28;20102;-61
2021/03/25 08:58:20;;;;;;;10.75;6.35;;;;;;;7.63;43.40;97238.19;5055585;28;20044;-62
2021/03/25 09:01:10;;;;;;;7.18;5.20;;;;;;;7.83;42.96;97247.44;5044977;28;20047;-62
2021/03/25 09:04:00;;;;;;;6.95;4.93;;;;;;;7.59;43.60;97198.66;5044899;28;20499;-61
2021/03/25 09:06:47;;;;;;;6.03;4.45;;;;;;;8.49;43.72;97270.72;5048832;28;20047;-61
2021/03/25 09:09:34;;;;;;;7.88;5.40;;;;;;;8.75;41.02;97240.72;5059958;28;20201;-61
2021/03/25 09:12:24;;;;;;;10.02;5.57;;;;;;;8.52;41.07;97231.41;5055830;28;20040;-63
2021/03/25 09:15:09;;;;;;;5.82;3.90;;;;;;;7.79;39.94;97232.75;5043101;28;20043;-61
2021/03/25 09:18:06;;;;;;;9.05;4.35;;;;;;;7.61;44.76;97260.59;5048887;28;20112;-58
2021/03/25 09:20:55;;;;;;;12.23;5.93;;;;;;;7.06;42.37;97260.34;5043937;28;20591;-61
2021/03/25 09:24:02;;;;;;;8.95;5.10;;;;;;;6.88;44.67;97256.16;5056990;28;20087;-62
2021/03/25 09:26:48;;;;;;;6.45;3.90;;;;;;;5.52;46.19;97207.88;5047019;28;20622;-61
2021/03/25 09:30:18;;;;;;;5.15;3.63;;;;;;;5.35;47.36;97155.81;5046269;28;20511;-63
2021/03/25 09:33:39;;;;;;;6.85;4.45;;;;;;;6.02;46.16;97255.41;5037989;28;20114;-62
2021/03/25 09:36:23;;;;;;;8.50;4.22;;;;;;;6.37;46.31;97264.94;5042601;28;20048;-63
2021/03/25 09:39:19;;;;;;;7.57;2.97;;;;;;;6.30;45.27;97263.88;5040634;28;20522;-61
2021/03/25 09:42:25;;;;;;;8.27;3.65;;;;;;;6.36;43.52;97265.28;5043546;28;20040;-61
2021/03/25 09:45:32;;;;;;;6.00;3.63;;;;;;;5.34;45.97;97255.81;5044194;28;20568;-60
2021/03/25 09:48:28;;;;;;;6.95;4.13;;;;;;;5.59;46.80;97285.09;5044090;28;20056;-61
2021/03/25 09:51:26;;;;;;;6.47;3.95;;;;;;;6.07;43.95;97279.91;5043034;28;20060;-62
2021/03/25 09:54:26;;;;;;;8.57;5.53;;;;;;;6.13;44.63;97220.84;5042583;28;20048;-62
2021/03/25 09:57:31;;;;;;;8.27;5.25;;;;;;;6.83;45.10;97261.88;5052014;28;20097;-62
2021/03/25 10:00:25;;;;;;;5.70;3.90;;;;;;;6.96;44.11;97269.03;5062625;28;20118;-62
2021/03/25 10:03:14;;;;;;;8.18;4.18;;;;;;;6.75;43.94;97284.81;5063443;28;20600;-62
2021/03/25 10:05:58;;;;;;;11.95;6.43;;;;;;;6.79;46.42;97274.75;5062682;28;20038;-62
2021/03/25 10:08:42;;;;;;;6.68;3.88;;;;;;;6.55;45.70;97263.66;5063886;28;20056;-62
2021/03/25 10:11:53;;;;;;;5.78;3.88;;;;;;;6.59;44.53;97269.28;5062703;28;20035;-61
2021/03/25 10:14:47;;;;;;;7.35;3.78;;;;;;;6.23;46.56;97261.69;5063724;28;20055;-62
2021/03/25 10:17:50;;;;;;;6.68;4.40;;;;;;;6.25;46.58;97251.16;5062690;28;20463;-61
2021/03/25 10:20:57;;;;;;;5.63;3.85;;;;;;;6.66;44.11;97231.81;5061185;28;20052;-62
2021/03/25 10:23:50;;;;;;;5.72;4.13;;;;;;;6.92;43.82;97251.59;5062896;28;20051;-62
2021/03/25 10:26:46;;;;;;;4.40;2.93;;;;;;;6.89;42.59;97246.75;5057318;28;20031;-61
2021/03/25 10:29:34;;;;;;;8.23;5.32;;;;;;;6.69;43.40;97180.75;5040964;28;20052;-61
2021/03/25 10:32:30;;;;;;;4.80;3.90;;;;;;;6.61;43.66;97239.47;5042663;28;20102;-61
2021/03/25 10:35:22;;;;;;;6.88;5.03;;;;;;;6.79;45.29;97241.69;5042579;28;20102;-62
2021/03/25 10:38:11;;;;;;;6.15;4.10;;;;;;;6.85;46.84;97253.28;5043457;28;20059;-61
2021/03/25 10:41:01;;;;;;;7.00;3.97;;;;;;;7.07;45.11;97236.34;5041232;28;20498;-61
2021/03/25 10:43:49;;;;;;;6.40;4.55;;;;;;;6.91;45.37;97244.47;5042654;28;20106;-62
2021/03/25 10:46:36;;;;;;;5.63;2.88;;;;;;;5.72;43.78;97125.44;5046142;28;20068;-61
2021/03/25 10:49:28;;;;;;;7.63;3.88;;;;;;;6.80;45.79;97240.53;5046729;28;20067;-61
2021/03/25 10:52:31;;;;;;;5.85;4.10;;;;;;;6.38;45.88;97236.31;5045988;28;20044;-61
2021/03/25 10:55:30;;;;;;;8.13;3.90;;;;;;;6.25;47.36;97244.84;5045545;28;20114;-62
2021/03/25 10:58:27;;;;;;;5.07;3.38;;;;;;;5.93;46.35;97251.91;5045977;28;20087;-61
2021/03/25 11:01:24;;;;;;;5.60;3.13;;;;;;;5.71;46.77;97228.28;5045956;28;20044;-61
2021/03/25 11:04:17;;;;;;;6.82;4.53;;;;;;;5.28;46.13;97180.28;5045796;28;20098;-61
2021/03/25 11:07:23;;;;;;;7.53;4.80;;;;;;;6.18;46.98;97241.84;5044963;28;20040;-61
2021/03/25 11:10:19;;;;;;;5.82;3.42;;;;;;;6.55;46.14;97263.66;5045882;28;20329;-62
2021/03/25 11:13:16;;;;;;;5.78;3.70;;;;;;;6.91;44.81;97233.44;5046312;28;20047;-61
2021/03/25 11:16:04;;;;;;;6.50;4.03;;;;;;;6.85;43.87;97240.34;5045354;28;20573;-62
2021/03/25 11:19:02;;;;;;;6.82;3.97;;;;;;;6.93;43.93;97231.16;5044992;28;20141;-62
2021/03/25 11:21:47;;;;;;;7.85;4.95;;;;;;;7.19;44.27;97233.63;5043944;28;20531;-62
2021/03/25 11:24:34;;;;;;;9.20;5.18;;;;;;;7.18;45.61;97227.28;5046198;28;20051;-61
2021/03/25 11:27:22;;;;;;;6.28;4.25;;;;;;;6.85;44.88;97239.53;5056052;28;20501;-62
2021/03/25 11:30:24;;;;;;;9.38;4.85;;;;;;;7.16;44.49;97228.78;5065508;28;20530;-62
2021/03/25 11:33:27;;;;;;;8.27;4.60;;;;;;;7.17;44.88;97239.47;5064818;28;20052;-61
2021/03/25 11:36:12;;;;;;;6.13;4.00;;;;;;;6.57;45.67;97228.34;5064566;28;20131;-62
2021/03/25 11:39:14;;;;;;;8.05;4.45;;;;;;;6.79;43.40;97230.69;5065317;28;20070;-61
2021/03/25 11:42:01;;;;;;;6.38;4.22;;;;;;;6.37;44.50;97234.69;5065047;28;20067;-61
2021/03/25 11:44:48;;;;;;;6.32;3.95;;;;;;;6.06;45.30;97226.09;5064309;28;20109;-62
2021/03/25 11:47:45;;;;;;;3.80;2.67;;;;;;;5.67;45.75;97232.03;5065317;28;20067;-61
2021/03/25 11:50:35;;;;;;;5.70;3.72;;;;;;;6.04;46.37;97220.09;5065492;28;20067;-62
2021/03/25 11:53:36;;;;;;;6.78;4.57;;;;;;;6.42;46.88;97214.44;5065860;28;20097;-62
2021/03/25 11:56:31;;;;;;;5.57;4.35;;;;;;;6.78;44.31;97228.28;5061630;28;20046;-62
2021/03/25 11:59:19;;;;;;;7.35;5.30;;;;;;;6.80;43.93;97225.97;5045463;28;20036;-62
2021/03/25 12:02:11;;;;;;;7.05;4.35;;;;;;;5.80;44.08;97154.00;5044620;28;20102;-62
2021/03/25 12:04:56;;;;;;;10.07;4.95;;;;;;;6.35;44.50;97230.66;5045210;28;20107;-63
2021/03/25 12:07:40;;;;;;;7.95;5.03;;;;;;;6.01;45.25;97187.78;5045389;28;20035;-63
2021/03/25 12:10:24;;;;;;;8.10;4.32;;;;;;;6.44;44.81;97196.44;5043208;28;20040;-62
2021/03/25 12:13:09;;;;;;;8.77;4.45;;;;;;;5.38;45.32;97070.81;5045036;28;20094;-62
2021/03/25 12:15:54;;;;;;;7.68;3.90;;;;;;;6.68;45.38;97221.25;5044094;28;20067;-62
2021/03/25 12:18:44;;;;;;;7.75;4.75;;;;;;;6.64;45.00;97228.56;5044128;28;20382;-62
2021/03/25 12:21:30;;;;;;;5.78;4.35;;;;;;;6.05;44.28;97133.75;5043707;28;20105;-62
2021/03/25 12:24:14;;;;;;;5.18;3.47;;;;;;;6.64;43.89;97228.56;5044914;28;20040;-62
2021/03/25 12:26:58;;;;;;;5.68;3.28;;;;;;;6.66;44.87;97231.81;5051902;28;20047;-62
2021/03/25 12:29:42;;;;;;;7.55;4.15;;;;;;;6.73;45.28;97232.06;5064751;28;20051;-62
2021/03/25 12:32:29;;;;;;;6.82;4.80;;;;;;;6.31;44.02;97219.53;5063786;28;20043;-62
2021/03/25 12:35:16;;;;;;;2.92;2.35;;;;;;;6.05;45.39;97235.47;5063762;28;20047;-62
2021/03/25 12:38:00;;;;;;;4.82;2.97;;;;;;;5.81;44.16;97232.56;5062905;28;20105;-62
2021/03/25 12:40:45;;;;;;;5.95;4.35;;;;;;;5.94;46.50;97231.53;5063920;28;20161;-62
2021/03/25 12:43:31;;;;;;;7.10;4.13;;;;;;;6.12;46.00;97232.97;5062890;28;20071;-62
2021/03/25 12:46:15;;;;;;;6.85;4.43;;;;;;;6.47;47.43;97228.75;5055136;28;20500;-63
2021/03/25 12:49:00;;;;;;;9.07;4.45;;;;;;;6.10;46.00;97213.28;5064144;28;20122;-63
2021/03/25 12:51:44;;;;;;;6.15;3.83;;;;;;;6.15;46.01;97229.56;5063878;28;20071;-61
2021/03/25 12:54:27;;;;;;;5.63;3.45;;;;;;;6.30;44.72;97234.44;5062640;28;20097;-62
2021/03/25 12:57:17;;;;;;;6.40;4.05;;;;;;;3.44;44.88;96771.09;5053963;28;20075;-62
2021/03/25 13:00:07;;;;;;;7.88;4.57;;;;;;;6.32;46.08;97232.16;5043636;28;20048;-62
2021/03/25 13:02:52;;;;;;;8.07;4.65;;;;;;;6.80;45.32;97220.47;5043804;28;20043;-63
2021/03/25 13:05:36;;;;;;;6.22;4.10;;;;;;;6.83;44.87;97198.56;5043693;28;20538;-63
2021/03/25 13:08:20;;;;;;;5.85;3.88;;;;;;;6.93;44.51;97217.41;5044380;28;20495;-63
2021/03/25 13:11:05;;;;;;;18.17;10.82;;;;;;;7.02;43.72;97140.97;5043629;28;20059;-62
2021/03/25 13:13:49;;;;;;;5.72;3.92;;;;;;;7.10;43.32;97214.44;5061720;28;20550;-62
2021/03/25 13:16:34;;;;;;;7.93;4.40;;;;;;;7.51;43.09;97208.66;5056640;28;20354;-62
2021/03/25 13:19:18;;;;;;;7.10;4.90;;;;;;;6.86;43.96;97126.28;5052693;28;20607;-62
2021/03/25 13:22:02;;;;;;;5.93;4.05;;;;;;;7.02;43.69;97212.59;5044963;28;20834;-62
2021/03/25 13:24:47;;;;;;;6.72;3.60;;;;;;;6.28;45.67;97169.91;5053804;28;20047;-61
2021/03/25 13:27:32;;;;;;;12.45;6.25;;;;;;;6.83;45.90;97212.34;5046736;28;20186;-62
2021/03/25 13:30:17;;;;;;;7.55;4.40;;;;;;;6.83;44.46;97228.06;5044404;28;20577;-62